Time;durP1;ratioP1;P1;durP2;ratioP2;P2;SDS_P1;SDS_P2;PMS_P1;PMS_P2;Temp;Humidity;BMP_temperature;BMP_pressure;BME280_temperature;BME280_humidity;BME280_pressure;Samples;Min_cycle;Max_cycle;Signal;HPM_P1;HPM_P2
2022/07/17 00:00:08;;;;;;;7.38;4.43;;;;;;;16.85;nan;99375.25;5036320;28;20185;-68
2022/07/17 00:02:33;;;;;;;10.27;4.47;;;;;;;16.87;nan;99375.09;5036175;28;20047;-68
2022/07/17 00:04:58;;;;;;;10.07;4.93;;;;;;;16.84;nan;99373.53;5054248;28;20039;-67
2022/07/17 00:07:23;;;;;;;12.98;5.30;;;;;;;16.84;nan;99365.47;5054138;28;20390;-69
2022/07/17 00:09:47;;;;;;;8.27;4.57;;;;;;;16.85;nan;99371.69;5054473;28;20147;-68
2022/07/17 00:12:12;;;;;;;8.73;5.68;;;;;;;16.86;nan;99370.69;5036367;28;20051;-69
2022/07/17 00:14:37;;;;;;;7.00;4.93;;;;;;;16.84;nan;99370.84;5054491;28;20044;-69
2022/07/17 00:17:02;;;;;;;9.75;5.32;;;;;;;16.84;nan;99375.41;5056750;28;20056;-69
2022/07/17 00:19:27;;;;;;;10.70;5.20;;;;;;;16.80;nan;99374.88;5058495;28;20109;-69
2022/07/17 00:21:52;;;;;;;10.25;5.72;;;;;;;16.77;nan;99367.09;5023535;28;20067;-69
2022/07/17 00:24:19;;;;;;;14.15;7.03;;;;;;;16.73;nan;99376.47;5057785;28;20044;-69
2022/07/17 00:26:44;;;;;;;7.50;4.75;;;;;;;16.70;nan;99374.13;5039331;28;20040;-67
2022/07/17 00:29:09;;;;;;;9.90;5.53;;;;;;;16.67;nan;99369.88;5057679;28;20039;-69
2022/07/17 00:31:34;;;;;;;13.07;5.60;;;;;;;16.65;nan;99369.19;5039350;28;20178;-69
2022/07/17 00:33:59;;;;;;;7.15;5.40;;;;;;;16.62;nan;99364.09;5057468;28;20130;-69
2022/07/17 00:36:24;;;;;;;9.00;5.45;;;;;;;16.58;nan;99373.47;5039296;28;20146;-69
2022/07/17 00:38:48;;;;;;;10.38;5.10;;;;;;;16.56;nan;99363.88;5057159;28;20044;-71
2022/07/17 00:41:16;;;;;;;14.25;5.95;;;;;;;16.56;nan;99371.94;5022387;28;20075;-71
2022/07/17 00:43:42;;;;;;;8.40;5.07;;;;;;;16.50;nan;99370.69;5057270;28;20046;-68
2022/07/17 00:46:07;;;;;;;8.30;5.20;;;;;;;16.45;nan;99366.78;5038985;28;20047;-68
2022/07/17 00:48:32;;;;;;;9.90;5.20;;;;;;;16.39;nan;99362.84;5057041;28;20048;-69
2022/07/17 00:50:57;;;;;;;10.05;5.15;;;;;;;16.38;nan;99371.06;5005834;28;20052;-68
2022/07/17 00:53:22;;;;;;;8.00;5.10;;;;;;;16.36;nan;99356.94;5057200;28;20047;-69
2022/07/17 00:55:49;;;;;;;10.75;5.10;;;;;;;16.36;nan;99365.03;5057355;28;20044;-71
2022/07/17 00:58:24;;;;;;;8.80;5.10;;;;;;;16.40;nan;99367.22;5056982;28;20036;-67
2022/07/17 01:00:51;;;;;;;11.98;5.80;;;;;;;16.36;nan;99357.81;5056967;28;20038;-69
2022/07/17 01:03:17;;;;;;;12.75;5.28;;;;;;;16.36;nan;99367.72;5057037;28;20044;-71
2022/07/17 01:05:42;;;;;;;10.63;6.10;;;;;;;16.34;nan;99373.25;5056860;28;20044;-68
2022/07/17 01:08:07;;;;;;;10.63;5.53;;;;;;;16.34;nan;99375.94;5038647;28;20048;-70
2022/07/17 01:10:32;;;;;;;9.00;5.47;;;;;;;16.36;nan;99371.25;5021687;28;20047;-68
2022/07/17 01:12:58;;;;;;;8.90;5.05;;;;;;;16.38;nan;99381.84;5056852;28;20421;-69
2022/07/17 01:15:23;;;;;;;9.77;4.70;;;;;;;16.36;nan;99379.31;5057132;28;20044;-70
2022/07/17 01:17:48;;;;;;;7.38;4.45;;;;;;;16.34;nan;99381.31;5057205;28;20109;-71
2022/07/17 01:20:13;;;;;;;7.90;5.00;;;;;;;16.34;nan;99378.63;5039333;28;20040;-71
2022/07/17 01:22:43;;;;;;;8.95;5.07;;;;;;;16.36;nan;99378.47;5038651;28;20089;-74
2022/07/17 01:25:09;;;;;;;6.80;4.53;;;;;;;16.32;nan;99381.47;5038884;28;20059;-72
2022/07/17 01:27:34;;;;;;;7.93;4.97;;;;;;;16.33;nan;99391.22;5040891;28;20064;-74
2022/07/17 01:29:59;;;;;;;9.55;5.25;;;;;;;16.35;nan;99388.38;5059775;28;20082;-71
2022/07/17 01:32:50;;;;;;;6.72;4.63;;;;;;;16.43;nan;99391.16;5058183;28;20048;-71
2022/07/17 01:35:16;;;;;;;9.43;4.47;;;;;;;16.38;nan;99379.13;5033632;28;20418;-71
2022/07/17 01:37:42;;;;;;;6.93;4.57;;;;;;;16.38;nan;99381.84;5056980;28;20121;-72
2022/07/17 01:40:09;;;;;;;8.98;4.63;;;;;;;16.39;nan;99391.59;5038845;28;20044;-72
2022/07/17 01:42:35;;;;;;;9.63;5.40;;;;;;;16.36;nan;99387.38;5056362;28;20502;-70
2022/07/17 01:45:00;;;;;;;9.48;5.38;;;;;;;16.37;nan;99399.81;5056303;28;20047;-71
2022/07/17 01:47:25;;;;;;;11.57;5.85;;;;;;;16.36;nan;99391.94;5056293;28;20043;-74
2022/07/17 01:49:54;;;;;;;11.45;5.97;;;;;;;16.32;nan;99400.28;5041115;28;20502;-72
2022/07/17 01:52:20;;;;;;;12.68;5.28;;;;;;;16.30;nan;99396.91;5058322;28;20085;-71
2022/07/17 01:54:45;;;;;;;9.40;4.90;;;;;;;16.30;nan;99399.59;5058042;28;20421;-72
2022/07/17 01:57:11;;;;;;;6.97;4.90;;;;;;;16.30;nan;99401.44;5056789;28;20406;-73
2022/07/17 01:59:37;;;;;;;8.57;5.22;;;;;;;16.32;nan;99407.50;5055971;28;20052;-70
2022/07/17 02:02:04;;;;;;;8.85;5.13;;;;;;;16.36;nan;99405.38;5020787;28;20135;-71
2022/07/17 02:04:29;;;;;;;8.88;4.90;;;;;;;16.40;nan;99401.38;5055821;28;20048;-67
2022/07/17 02:06:54;;;;;;;6.15;4.47;;;;;;;16.43;nan;99398.38;5055873;28;20044;-64
2022/07/17 02:09:19;;;;;;;9.10;4.78;;;;;;;16.46;nan;99398.06;5055879;28;20039;-67
2022/07/17 02:11:44;;;;;;;7.45;4.55;;;;;;;16.46;nan;99398.06;5055680;28;20040;-64
2022/07/17 02:14:09;;;;;;;7.00;4.40;;;;;;;16.46;nan;99398.06;5037569;28;20139;-70
2022/07/17 02:16:34;;;;;;;7.20;4.72;;;;;;;16.47;nan;99394.41;5055181;28;20119;-67
2022/07/17 02:18:58;;;;;;;5.72;4.18;;;;;;;16.48;nan;99404.97;5055433;28;20074;-66
2022/07/17 02:21:23;;;;;;;8.55;4.18;;;;;;;16.51;nan;99387.69;5037407;28;20040;-64
2022/07/17 02:23:48;;;;;;;8.10;4.65;;;;;;;16.53;nan;99391.06;5038799;28;20051;-74
2022/07/17 02:26:13;;;;;;;8.50;4.88;;;;;;;16.53;nan;99394.63;5038021;28;20044;-69
2022/07/17 02:28:37;;;;;;;6.80;4.57;;;;;;;16.54;nan;99392.78;5056026;28;20058;-72
2022/07/17 02:31:02;;;;;;;8.70;5.03;;;;;;;16.56;nan;99388.94;5056002;28;20048;-62
2022/07/17 02:33:27;;;;;;;6.88;4.35;;;;;;;16.57;nan;99392.47;5055394;28;20044;-64
2022/07/17 02:35:51;;;;;;;12.02;4.68;;;;;;;16.52;nan;99395.59;5036898;28;20047;-64
2022/07/17 02:38:16;;;;;;;7.22;4.22;;;;;;;16.50;nan;99399.44;5054870;28;20047;-68
2022/07/17 02:40:41;;;;;;;7.22;4.00;;;;;;;16.46;nan;99398.06;5036706;28;20040;-62
2022/07/17 02:43:06;;;;;;;7.63;4.40;;;;;;;16.43;nan;99393.84;5055373;28;20040;-65
2022/07/17 02:45:31;;;;;;;6.63;4.22;;;;;;;16.39;nan;99395.13;5055338;28;20032;-65
2022/07/17 02:47:56;;;;;;;6.13;4.18;;;;;;;16.32;nan;99394.06;5036885;28;20048;-63
2022/07/17 02:50:21;;;;;;;11.13;5.07;;;;;;;16.20;nan;99398.81;5037087;28;20063;-66
2022/07/17 02:52:47;;;;;;;7.45;4.32;;;;;;;16.18;nan;99397.25;5055193;28;20097;-63
2022/07/17 02:55:12;;;;;;;8.18;4.60;;;;;;;16.20;nan;99388.06;5055118;28;20047;-63
2022/07/17 02:57:38;;;;;;;9.82;4.85;;;;;;;16.23;nan;99395.81;5055065;28;20043;-63
2022/07/17 03:00:05;;;;;;;8.20;4.10;;;;;;;16.27;nan;99396.34;5048603;28;20036;-62
2022/07/17 03:02:29;;;;;;;14.05;6.28;;;;;;;16.22;nan;99394.13;5000435;28;20036;-63
2022/07/17 03:04:54;;;;;;;5.57;4.40;;;;;;;16.27;nan;99399.03;5016867;28;20052;-62
2022/07/17 03:07:19;;;;;;;8.68;4.47;;;;;;;16.32;nan;99394.91;5034144;28;20139;-66
2022/07/17 03:09:44;;;;;;;7.30;4.68;;;;;;;16.39;nan;99400.53;5034565;28;20044;-65
2022/07/17 03:12:08;;;;;;;9.80;5.05;;;;;;;16.47;nan;99400.63;5016601;28;20871;-66
2022/07/17 03:14:33;;;;;;;8.60;4.97;;;;;;;16.52;nan;99402.84;5016215;28;20041;-66
2022/07/17 03:16:58;;;;;;;11.88;4.60;;;;;;;16.58;nan;99400.41;5016896;28;20060;-65
2022/07/17 03:19:23;;;;;;;16.40;4.70;;;;;;;16.63;nan;99391.88;5034823;28;20051;-65
2022/07/17 03:21:48;;;;;;;9.35;4.85;;;;;;;16.71;nan;99394.63;5035045;28;20131;-68
2022/07/17 03:24:12;;;;;;;14.63;4.35;;;;;;;16.80;nan;99392.88;5035013;28;20131;-71
2022/07/17 03:26:37;;;;;;;7.80;4.53;;;;;;;16.88;nan;99401.03;5017077;28;20135;-72
2022/07/17 03:29:02;;;;;;;10.13;4.03;;;;;;;16.96;nan;99404.63;5035237;28;20048;-68
2022/07/17 03:31:27;;;;;;;7.15;3.88;;;;;;;17.06;nan;99410.75;5034857;28;20368;-69
2022/07/17 03:33:52;;;;;;;8.18;4.47;;;;;;;17.15;nan;99406.28;5034923;28;20089;-67
2022/07/17 03:36:16;;;;;;;7.22;4.70;;;;;;;17.26;nan;99411.44;5016900;28;20056;-66
2022/07/17 03:38:41;;;;;;;8.70;4.70;;;;;;;17.37;nan;99419.25;5001931;28;20415;-66
2022/07/17 03:41:06;;;;;;;8.40;4.72;;;;;;;17.45;nan;99418.44;5037066;28;20039;-67
2022/07/17 03:43:31;;;;;;;7.82;4.25;;;;;;;17.53;nan;99429.28;5043299;28;20040;-67
2022/07/17 03:45:56;;;;;;;14.57;4.60;;;;;;;17.65;nan;99413.72;5063946;28;20039;-65
2022/07/17 03:48:20;;;;;;;7.72;4.38;;;;;;;17.80;nan;99408.56;5062742;28;20039;-65
2022/07/17 03:50:45;;;;;;;8.10;4.68;;;;;;;17.98;nan;99414.72;5045391;28;20043;-66
2022/07/17 03:53:10;;;;;;;8.55;4.20;;;;;;;18.14;nan;99417.47;5049899;28;20040;-66
2022/07/17 03:55:35;;;;;;;11.68;4.80;;;;;;;18.28;nan;99421.41;5014110;28;20047;-66
2022/07/17 03:58:00;;;;;;;7.45;4.47;;;;;;;18.43;nan;99417.88;5033415;28;20889;-66
2022/07/17 04:00:26;;;;;;;8.23;5.28;;;;;;;18.55;nan;99409.47;5047791;28;20047;-67
2022/07/17 04:02:51;;;;;;;9.15;4.40;;;;;;;18.63;nan;99410.38;5065731;28;20031;-68
2022/07/17 04:05:16;;;;;;;6.85;4.45;;;;;;;18.71;nan;99420.34;5049828;28;20089;-66
2022/07/17 04:07:42;;;;;;;9.70;4.40;;;;;;;18.81;nan;99412.94;5065474;28;20032;-65
2022/07/17 04:10:08;;;;;;;5.63;4.05;;;;;;;18.93;nan;99416.16;5062051;28;20048;-70
2022/07/17 04:12:33;;;;;;;9.00;3.65;;;;;;;19.07;nan;99407.38;5057296;28;20040;-68
2022/07/17 04:14:57;;;;;;;7.10;3.90;;;;;;;19.23;nan;99401.94;5057521;28;20047;-69
2022/07/17 04:17:22;;;;;;;5.25;3.83;;;;;;;19.41;nan;99412.56;5057359;28;20086;-68
2022/07/17 04:19:48;;;;;;;8.30;3.15;;;;;;;19.58;nan;99401.56;5022351;28;20101;-68
2022/07/17 04:22:13;;;;;;;5.47;3.60;;;;;;;19.73;nan;99401.72;5057537;28;20047;-68
2022/07/17 04:24:38;;;;;;;5.60;3.80;;;;;;;19.86;nan;99396.56;5058059;28;20520;-67
2022/07/17 04:27:03;;;;;;;9.05;4.07;;;;;;;19.98;nan;99396.22;5022332;28;20117;-69
2022/07/17 04:29:28;;;;;;;8.75;3.83;;;;;;;20.05;nan;99395.31;5058184;28;20047;-68
2022/07/17 04:31:53;;;;;;;8.00;3.83;;;;;;;20.10;nan;99389.38;5038693;28;20486;-68
2022/07/17 04:34:18;;;;;;;8.38;4.32;;;;;;;20.12;nan;99395.44;5040047;28;20035;-67
2022/07/17 04:36:42;;;;;;;5.10;3.15;;;;;;;20.10;nan;99394.78;5058439;28;20044;-68
2022/07/17 04:39:08;;;;;;;4.95;3.47;;;;;;;20.11;nan;99389.19;5060216;28;20040;-68
2022/07/17 04:41:32;;;;;;;9.70;4.78;;;;;;;20.13;nan;99397.97;5059757;28;20498;-68
2022/07/17 04:43:57;;;;;;;9.32;3.65;;;;;;;20.15;nan;99389.69;5060430;28;20506;-68
2022/07/17 04:46:22;;;;;;;5.50;2.80;;;;;;;20.25;nan;99393.88;5042200;28;20048;-69
2022/07/17 04:48:47;;;;;;;9.52;2.97;;;;;;;20.40;nan;99385.03;5059410;28;20040;-68
2022/07/17 04:51:11;;;;;;;5.72;3.10;;;;;;;20.54;nan;99387.78;5064280;28;20525;-68
2022/07/17 04:53:37;;;;;;;5.65;3.25;;;;;;;20.63;nan;99383.19;5066089;28;20077;-72
2022/07/17 04:56:01;;;;;;;8.65;2.92;;;;;;;20.66;nan;99390.91;5054792;28;20070;-69
2022/07/17 04:58:26;;;;;;;6.18;3.05;;;;;;;20.67;nan;99384.47;5068840;28;20485;-70
2022/07/17 05:00:51;;;;;;;4.90;3.25;;;;;;;20.71;nan;99385.81;5038906;28;20050;-70
2022/07/17 05:03:16;;;;;;;3.85;2.83;;;;;;;20.74;nan;99390.88;5038309;28;20043;-71
2022/07/17 05:05:41;;;;;;;6.15;2.78;;;;;;;20.76;nan;99399.69;5038890;28;20048;-70
2022/07/17 05:08:05;;;;;;;3.75;2.40;;;;;;;20.77;nan;99393.22;5056600;28;20036;-70
2022/07/17 05:10:30;;;;;;;9.18;3.13;;;;;;;20.80;nan;99402.84;5057210;28;20498;-71
2022/07/17 05:12:55;;;;;;;3.70;3.10;;;;;;;20.84;nan;99404.19;5006915;28;20508;-71
2022/07/17 05:15:20;;;;;;;3.03;2.50;;;;;;;20.86;nan;99396.72;5057927;28;20476;-70
2022/07/17 05:17:45;;;;;;;5.13;3.00;;;;;;;20.91;nan;99402.44;5038585;28;20052;-71
2022/07/17 05:20:10;;;;;;;8.13;3.10;;;;;;;20.97;nan;99397.13;5057073;28;20413;-69
2022/07/17 05:22:34;;;;;;;8.10;2.83;;;;;;;21.18;nan;99401.03;5057942;28;20096;-71
2022/07/17 05:24:59;;;;;;;4.35;2.90;;;;;;;21.46;nan;99410.25;5039675;28;20047;-70
2022/07/17 05:27:24;;;;;;;4.47;2.22;;;;;;;21.65;nan;99404.31;5039198;28;20043;-70
2022/07/17 05:29:49;;;;;;;3.95;2.75;;;;;;;21.91;nan;99405.69;5038720;28;20044;-71
2022/07/17 05:32:13;;;;;;;5.47;3.28;;;;;;;22.44;nan;99407.25;5039690;28;20082;-70
2022/07/17 05:34:38;;;;;;;9.15;3.45;;;;;;;23.13;nan;99402.97;5057094;28;20044;-71
2022/07/17 05:37:03;;;;;;;8.07;2.85;;;;;;;23.84;nan;99401.00;5055782;28;20159;-67
2022/07/17 05:39:27;;;;;;;8.38;3.00;;;;;;;24.48;nan;99397.13;5022181;28;20093;-67
2022/07/17 05:41:52;;;;;;;4.30;2.63;;;;;;;24.98;nan;99401.25;5055698;28;20050;-67
2022/07/17 05:44:17;;;;;;;8.30;3.63;;;;;;;25.44;nan;99405.88;5021050;28;20044;-68
2022/07/17 05:46:42;;;;;;;3.60;2.40;;;;;;;25.79;nan;99399.13;5057122;28;20044;-68
2022/07/17 05:49:06;;;;;;;3.78;2.83;;;;;;;26.15;nan;99393.16;5058476;28;20659;-68
2022/07/17 05:51:31;;;;;;;2.05;1.95;;;;;;;26.52;nan;99397.00;5059074;28;20422;-68
2022/07/17 05:53:56;;;;;;;2.55;2.30;;;;;;;26.86;nan;99392.19;5058810;28;20040;-69
2022/07/17 05:56:21;;;;;;;3.53;2.20;;;;;;;27.15;nan;99391.56;5056429;28;20123;-70
2022/07/17 05:58:45;;;;;;;6.88;2.42;;;;;;;27.56;nan;99381.94;5057428;28;20123;-70
2022/07/17 06:01:10;;;;;;;7.63;2.70;;;;;;;27.89;nan;99389.81;5057856;28;20119;-69
2022/07/17 06:03:35;;;;;;;7.35;3.35;;;;;;;28.41;nan;99388.41;5038658;28;20035;-70
2022/07/17 06:06:00;;;;;;;8.52;3.90;;;;;;;28.87;nan;99391.38;5039426;28;20517;-68
2022/07/17 06:08:24;;;;;;;3.40;2.40;;;;;;;29.37;nan;99388.25;5058577;28;20130;-70
2022/07/17 06:10:49;;;;;;;2.13;2.03;;;;;;;29.87;nan;99394.09;5059099;28;20035;-71
2022/07/17 06:13:14;;;;;;;3.13;2.10;;;;;;;30.47;nan;99391.00;5058502;28;20044;-68
2022/07/17 06:15:39;;;;;;;4.35;2.30;;;;;;;31.16;nan;99394.53;5057042;28;20047;-69
2022/07/17 06:18:04;;;;;;;4.55;2.63;;;;;;;31.99;nan;99395.56;5039293;28;20048;-70
2022/07/17 06:20:30;;;;;;;4.38;2.50;;;;;;;32.89;nan;99397.81;5040389;28;20055;-71
2022/07/17 06:22:54;;;;;;;5.00;2.47;;;;;;;33.73;nan;99386.94;5058380;28;20071;-71
2022/07/17 06:25:19;;;;;;;3.05;2.75;;;;;;;34.37;nan;99400.63;5058756;28;20071;-71
2022/07/17 06:27:44;;;;;;;7.22;2.38;;;;;;;34.95;nan;99398.59;5058976;28;20095;-70
2022/07/17 06:30:11;;;;;;;5.95;2.67;;;;;;;35.45;nan;99397.78;5037573;28;20071;-71
2022/07/17 06:32:36;;;;;;;3.83;2.83;;;;;;;36.00;nan;99394.16;5037028;28;20036;-71
2022/07/17 06:35:01;;;;;;;7.80;3.20;;;;;;;36.29;nan;99393.50;5037240;28;20131;-71
2022/07/17 06:37:26;;;;;;;4.10;3.70;;;;;;;36.15;nan;99386.88;5055267;28;20123;-70
2022/07/17 06:39:50;;;;;;;6.80;3.08;;;;;;;35.79;nan;99383.34;5038442;28;20127;-70
2022/07/17 06:42:15;;;;;;;4.97;2.90;;;;;;;35.48;nan;99383.38;5038693;28;20521;-70
2022/07/17 06:44:40;;;;;;;6.53;3.35;;;;;;;35.40;nan;99375.63;5057097;28;20402;-70
2022/07/17 06:47:04;;;;;;;7.32;3.28;;;;;;;35.66;nan;99373.66;5040194;28;20064;-70
2022/07/17 06:49:29;;;;;;;5.88;2.83;;;;;;;36.29;nan;99376.84;5037110;28;20159;-70
2022/07/17 06:51:54;;;;;;;4.10;2.60;;;;;;;36.91;nan;99367.91;5019207;28;20032;-70
2022/07/17 06:54:23;;;;;;;5.55;3.05;;;;;;;37.31;nan;99375.13;5036660;28;20044;-70
2022/07/17 06:56:47;;;;;;;4.85;3.08;;;;;;;37.88;nan;99376.28;5035380;28;20449;-70
2022/07/17 06:59:12;;;;;;;3.30;3.10;;;;;;;38.53;nan;99382.19;5036951;28;20194;-71
2022/07/17 07:01:38;;;;;;;4.88;2.92;;;;;;;38.87;nan;99373.63;5036629;28;20044;-70
2022/07/17 07:04:03;;;;;;;5.55;3.03;;;;;;;38.65;nan;99378.97;5034913;28;20098;-69
2022/07/17 07:06:29;;;;;;;6.97;3.28;;;;;;;38.31;nan;99373.56;5034828;28;20048;-70
2022/07/17 07:08:54;;;;;;;6.85;3.20;;;;;;;38.46;nan;99367.78;5016769;28;20130;-70
2022/07/17 07:11:19;;;;;;;7.57;3.53;;;;;;;38.82;nan;99382.91;5000184;28;20124;-69
2022/07/17 07:13:44;;;;;;;3.42;3.13;;;;;;;39.47;nan;99371.88;5016752;28;20139;-69
2022/07/17 07:16:09;;;;;;;7.32;3.45;;;;;;;39.91;nan;99431.94;4999332;28;20445;-69
2022/07/17 07:18:33;;;;;;;6.28;3.05;;;;;;;39.85;nan;99433.97;5034207;28;20052;-70
2022/07/17 07:20:58;;;;;;;3.80;3.45;;;;;;;39.67;nan;99370.66;5016041;28;20123;-69
2022/07/17 07:23:24;;;;;;;5.05;3.65;;;;;;;39.82;nan;99377.91;5034281;28;20402;-68
2022/07/17 07:25:49;;;;;;;4.60;3.75;;;;;;;40.58;nan;99384.78;5035807;28;20048;-69
2022/07/17 07:28:14;;;;;;;4.38;4.00;;;;;;;41.43;nan;99383.03;5037094;28;20043;-69
2022/07/17 07:30:38;;;;;;;3.92;3.63;;;;;;;42.20;nan;99391.09;5038659;28;20106;-69
2022/07/17 07:33:03;;;;;;;3.95;3.65;;;;;;;42.88;nan;99392.44;5038306;28;20131;-71
2022/07/17 07:35:28;;;;;;;5.60;4.55;;;;;;;43.46;nan;99380.69;5038420;28;20109;-70
2022/07/17 07:37:53;;;;;;;4.40;4.10;;;;;;;43.17;nan;99375.78;5038117;28;20033;-70
2022/07/17 07:40:17;;;;;;;4.82;4.47;;;;;;;42.52;nan;99371.09;5038748;28;20410;-71
2022/07/17 07:42:42;;;;;;;4.88;4.53;;;;;;;42.58;nan;99363.31;5039648;28;20068;-70
2022/07/17 07:45:08;;;;;;;5.70;4.25;;;;;;;42.54;nan;99367.97;5039159;28;20378;-70
2022/07/17 07:47:39;;;;;;;5.13;4.70;;;;;;;42.55;nan;99373.25;5017642;28;20174;-70
2022/07/17 07:50:05;;;;;;;4.70;4.30;;;;;;;43.17;nan;99374.91;5038753;28;20507;-70
2022/07/17 07:52:30;;;;;;;4.85;4.45;;;;;;;43.14;nan;99378.38;5038649;28;20465;-70
2022/07/17 07:54:55;;;;;;;6.03;4.78;;;;;;;42.65;nan;99380.50;5020154;28;20098;-70
2022/07/17 07:57:21;;;;;;;4.72;4.32;;;;;;;41.92;nan;99370.84;5038276;28;20041;-70
2022/07/17 07:59:46;;;;;;;5.07;4.50;;;;;;;41.38;nan;99375.63;5038020;28;20048;-71
2022/07/17 08:02:11;;;;;;;5.35;4.90;;;;;;;39.69;nan;99373.97;5037907;28;20262;-70
2022/07/17 08:04:35;;;;;;;4.13;3.47;;;;;;;38.05;nan;99359.09;5037961;28;20048;-70
2022/07/17 08:07:00;;;;;;;5.13;3.60;;;;;;;37.46;nan;99371.41;5036587;28;20068;-70
2022/07/17 08:09:25;;;;;;;5.30;3.40;;;;;;;36.51;nan;99376.47;5036504;28;20047;-71
2022/07/17 08:11:50;;;;;;;4.63;4.00;;;;;;;35.05;nan;99372.81;5038034;28;20036;-70
2022/07/17 08:14:15;;;;;;;5.28;3.33;;;;;;;33.61;nan;99366.13;5038228;28;20079;-71
2022/07/17 08:16:39;;;;;;;3.85;3.45;;;;;;;32.98;nan;99367.78;5048054;28;20524;-71
2022/07/17 08:19:04;;;;;;;3.78;3.35;;;;;;;33.19;nan;99372.41;5039173;28;20044;-70
2022/07/17 08:21:29;;;;;;;9.52;4.13;;;;;;;32.88;nan;99367.69;5058255;28;20032;-70
2022/07/17 08:23:54;;;;;;;7.13;3.58;;;;;;;33.16;nan;99370.19;5058112;28;20449;-70
2022/07/17 08:26:18;;;;;;;4.03;3.00;;;;;;;33.98;nan;99375.22;5059063;28;20044;-70
2022/07/17 08:28:44;;;;;;;3.35;2.88;;;;;;;33.47;nan;99363.00;5040078;28;20051;-69
2022/07/17 08:31:09;;;;;;;5.20;3.33;;;;;;;33.54;nan;99372.69;5040801;28;20055;-69
2022/07/17 08:33:34;;;;;;;3.92;3.08;;;;;;;34.26;nan;99365.69;5060052;28;20051;-69
2022/07/17 08:35:59;;;;;;;3.67;3.33;;;;;;;36.29;nan;99368.53;5057314;28;20101;-69
2022/07/17 08:38:24;;;;;;;5.57;3.90;;;;;;;38.56;nan;99384.41;5038114;28;20043;-68
2022/07/17 08:40:52;;;;;;;4.05;3.65;;;;;;;40.45;nan;99382.81;5038918;28;20047;-69
2022/07/17 08:43:17;;;;;;;4.32;4.03;;;;;;;41.02;nan;99377.63;5057445;28;20855;-68
2022/07/17 08:45:43;;;;;;;4.10;3.80;;;;;;;40.38;nan;99383.25;5056678;28;20387;-69
2022/07/17 08:48:14;;;;;;;7.50;3.58;;;;;;;39.00;nan;99378.47;5056885;28;20050;-69
2022/07/17 08:50:40;;;;;;;4.20;3.85;;;;;;;37.46;nan;99370.56;5057287;28;20038;-69
2022/07/17 08:53:05;;;;;;;3.58;3.38;;;;;;;36.32;nan;99374.34;5057143;28;20150;-70
2022/07/17 08:55:30;;;;;;;3.20;3.00;;;;;;;35.17;nan;99367.84;5057243;28;20126;-68
2022/07/17 08:57:55;;;;;;;3.22;2.88;;;;;;;34.03;nan;99371.66;5038612;28;20063;-68
2022/07/17 09:00:22;;;;;;;3.42;3.13;;;;;;;33.06;nan;99373.69;5021709;28;20036;-67
2022/07/17 09:03:04;;;;;;;3.28;2.58;;;;;;;32.65;nan;99374.34;5021533;28;20036;-68
2022/07/17 09:05:34;;;;;;;3.00;2.65;;;;;;;32.52;nan;99375.56;5004892;28;20039;-67
2022/07/17 09:08:00;;;;;;;4.45;2.85;;;;;;;33.18;nan;99379.84;5021222;28;20086;-67
2022/07/17 09:10:34;;;;;;;2.90;2.70;;;;;;;34.05;nan;99388.81;5038440;28;20387;-67
2022/07/17 09:13:00;;;;;;;10.07;4.28;;;;;;;33.94;nan;99389.88;5056393;28;20502;-68
2022/07/17 09:15:24;;;;;;;3.45;3.08;;;;;;;33.11;nan;99383.94;5038247;28;20437;-67
2022/07/17 09:17:54;;;;;;;6.72;4.18;;;;;;;31.99;nan;99388.13;5056236;28;20417;-68
2022/07/17 09:20:20;;;;;;;5.00;2.95;;;;;;;30.85;nan;99384.88;5038260;28;20051;-68
2022/07/17 09:22:56;;;;;;;3.72;2.92;;;;;;;30.05;nan;99393.13;5056223;28;20086;-68
2022/07/17 09:25:34;;;;;;;3.65;2.42;;;;;;;29.13;nan;99386.50;5038115;28;20119;-68
2022/07/17 09:28:04;;;;;;;6.90;3.30;;;;;;;28.10;nan;99392.13;5056147;28;20040;-69
2022/07/17 09:30:29;;;;;;;26.23;5.97;;;;;;;27.23;nan;99393.16;5055880;28;20048;-67
2022/07/17 09:32:55;;;;;;;8.90;3.53;;;;;;;26.80;nan;99395.78;5055666;28;20097;-68
2022/07/17 09:35:22;;;;;;;18.35;3.80;;;;;;;26.63;nan;99406.41;5037539;28;20035;-68
2022/07/17 09:37:47;;;;;;;5.68;3.08;;;;;;;26.50;nan;99395.53;5037608;28;20410;-68
2022/07/17 09:41:09;;;;;;;4.80;2.63;;;;;;;26.42;nan;99393.88;5056095;28;20410;-68
2022/07/17 09:42:58;;;;;;;3.63;2.47;;;;;;;27.17;nan;99383.97;5037422;28;20520;-68
2022/07/17 09:45:23;;;;;;;2.60;2.40;;;;;;;28.17;nan;99384.66;5055998;28;20462;-68
2022/07/17 09:47:48;;;;;;;2.85;2.53;;;;;;;28.98;nan;99391.63;5057014;28;20111;-68
2022/07/17 09:50:13;;;;;;;3.67;2.33;;;;;;;29.47;nan;99374.75;5055194;28;20101;-68
2022/07/17 09:52:38;;;;;;;3.00;2.80;;;;;;;30.07;nan;99379.16;5055750;28;20051;-69
2022/07/17 09:55:05;;;;;;;2.80;2.60;;;;;;;30.70;nan;99373.56;5037678;28;20185;-67
2022/07/17 09:57:34;;;;;;;3.50;3.20;;;;;;;31.09;nan;99368.25;5055648;28;20036;-68
2022/07/17 10:00:03;;;;;;;3.00;2.72;;;;;;;31.12;nan;99376.03;5055364;28;20506;-67
2022/07/17 10:02:39;;;;;;;3.08;2.42;;;;;;;30.76;nan;99377.28;5038667;28;20051;-68
2022/07/17 10:05:05;;;;;;;3.65;2.72;;;;;;;31.11;nan;99374.34;5037226;28;20411;-68
2022/07/17 10:07:30;;;;;;;3.08;2.58;;;;;;;31.72;nan;99384.44;5054849;28;20040;-68
2022/07/17 10:09:57;;;;;;;2.90;2.70;;;;;;;32.22;nan;99389.84;5037522;28;20410;-67
2022/07/17 10:12:23;;;;;;;7.38;2.90;;;;;;;32.38;nan;99390.88;5054716;28;20052;-69
2022/07/17 10:14:49;;;;;;;5.82;3.25;;;;;;;32.16;nan;99409.34;5055781;28;20040;-69
2022/07/17 10:17:19;;;;;;;3.55;2.63;;;;;;;31.60;nan;99401.06;5055459;28;20048;-69
2022/07/17 10:19:49;;;;;;;3.47;3.17;;;;;;;31.95;nan;99398.00;5055309;28;20489;-68
2022/07/17 10:22:14;;;;;;;6.75;3.63;;;;;;;32.24;nan;99393.19;5056508;28;20052;-68
2022/07/17 10:24:47;;;;;;;2.83;2.63;;;;;;;32.72;nan;99392.41;5057194;28;20039;-68
2022/07/17 10:27:27;;;;;;;10.23;3.13;;;;;;;33.44;nan;99393.91;5059631;28;20050;-67
2022/07/17 10:30:05;;;;;;;2.80;2.47;;;;;;;33.81;nan;99388.41;5063179;28;20047;-71
2022/07/17 10:32:31;;;;;;;4.75;2.75;;;;;;;33.92;nan;99390.13;5067544;28;20048;-71
2022/07/17 10:35:15;;;;;;;3.15;2.78;;;;;;;34.63;nan;99384.94;5069744;28;20051;-71
2022/07/17 10:37:40;;;;;;;3.10;2.90;;;;;;;34.15;nan;99386.94;5065881;28;20448;-71
2022/07/17 10:40:14;;;;;;;3.25;2.95;;;;;;;33.69;nan;99388.56;5057242;28;20050;-71
2022/07/17 10:42:51;;;;;;;3.03;2.72;;;;;;;32.97;nan;99385.47;5058451;28;20122;-71
2022/07/17 10:45:39;;;;;;;3.67;3.03;;;;;;;32.07;nan;99382.16;5027971;28;20047;-71
2022/07/17 10:48:16;;;;;;;4.70;3.20;;;;;;;31.13;nan;99366.69;5037399;28;20048;-70
2022/07/17 10:50:48;;;;;;;3.53;3.22;;;;;;;30.19;nan;99371.72;5036168;28;20048;-71
2022/07/17 10:53:20;;;;;;;2.80;2.60;;;;;;;29.60;nan;99377.28;5017658;28;20048;-71
2022/07/17 10:55:47;;;;;;;3.25;2.80;;;;;;;29.03;nan;99367.03;5017117;28;20063;-73
2022/07/17 10:58:35;;;;;;;4.38;3.05;;;;;;;28.62;nan;99371.44;5016580;28;20049;-71
2022/07/17 11:01:12;;;;;;;4.07;3.08;;;;;;;28.28;nan;99364.72;5016991;28;20040;-74
2022/07/17 11:03:38;;;;;;;5.43;3.05;;;;;;;27.88;nan;99341.59;5035571;28;20048;-71
2022/07/17 11:06:24;;;;;;;5.20;2.72;;;;;;;28.04;nan;99344.53;5035359;28;20422;-71
2022/07/17 11:09:18;;;;;;;4.63;2.67;;;;;;;28.30;nan;99334.34;5034703;28;20044;-68
2022/07/17 11:11:48;;;;;;;2.67;2.53;;;;;;;28.25;nan;99340.50;4992991;28;20490;-65
2022/07/17 11:14:24;;;;;;;2.50;2.30;;;;;;;28.28;nan;99352.94;4995786;28;20127;-66
2022/07/17 11:16:52;;;;;;;2.60;2.38;;;;;;;28.26;nan;99355.91;5012186;28;20459;-68
2022/07/17 11:19:38;;;;;;;3.40;2.92;;;;;;;28.37;nan;99354.28;5012036;28;20087;-70
2022/07/17 11:22:05;;;;;;;4.60;2.75;;;;;;;28.01;nan;99364.19;5012482;28;20053;-67
2022/07/17 11:24:40;;;;;;;2.33;2.17;;;;;;;27.95;nan;99361.53;5012647;28;20068;-67
2022/07/17 11:27:05;;;;;;;2.80;2.47;;;;;;;27.55;nan;99356.47;4995868;28;20052;-67
2022/07/17 11:29:36;;;;;;;2.88;2.63;;;;;;;27.33;nan;99360.66;4995772;28;20057;-67
2022/07/17 11:32:01;;;;;;;3.97;3.58;;;;;;;26.93;nan;99349.22;5012279;28;20053;-67
2022/07/17 11:34:26;;;;;;;4.20;2.65;;;;;;;26.63;nan;99335.31;4996030;28;20935;-66
2022/07/17 11:36:59;;;;;;;2.65;2.45;;;;;;;26.42;nan;99344.69;5012496;28;20899;-65
2022/07/17 11:39:24;;;;;;;2.55;2.30;;;;;;;26.02;nan;99350.31;5012111;28;20045;-66
2022/07/17 11:41:52;;;;;;;2.35;2.10;;;;;;;25.80;nan;99350.81;4995670;28;20049;-67
2022/07/17 11:44:19;;;;;;;2.08;1.92;;;;;;;25.57;nan;99351.25;4978867;28;20552;-72